sensor_id;sensor_type;location;lat;lon;timestamp;pressure;altitude;pressure_sealevel;temperature;humidity
19526;BME280;9907;42.676;26.348;2023-03-24T00:02:04;99132.09;;;7.42;100.00
19526;BME280;9907;42.676;26.348;2023-03-24T00:04:31;99133.44;;;7.58;100.00
19526;BME280;9907;42.676;26.348;2023-03-24T00:06:57;99133.66;;;7.44;100.00
19526;BME280;9907;42.676;26.348;2023-03-24T00:09:26;99130.03;;;7.45;100.00
19526;BME280;9907;42.676;26.348;2023-03-24T00:11:56;99134.66;;;7.54;100.00
19526;BME280;9907;42.676;26.348;2023-03-24T00:14:22;99126.91;;;7.51;100.00
19526;BME280;9907;42.676;26.348;2023-03-24T00:16:48;99131.56;;;7.37;100.00
19526;BME280;9907;42.676;26.348;2023-03-24T00:19:15;99128.56;;;7.41;100.00
19526;BME280;9907;42.676;26.348;2023-03-24T00:21:41;99122.59;;;7.61;100.00
19526;BME280;9907;42.676;26.348;2023-03-24T00:24:08;99121.00;;;7.59;100.00
19526;BME280;9907;42.676;26.348;2023-03-24T00:26:36;99124.72;;;7.45;100.00
19526;BME280;9907;42.676;26.348;2023-03-24T00:29:04;99120.94;;;7.37;100.00
19526;BME280;9907;42.676;26.348;2023-03-24T00:31:30;99118.91;;;7.40;100.00
19526;BME280;9907;42.676;26.348;2023-03-24T00:33:55;99119.13;;;7.37;100.00
19526;BME280;9907;42.676;26.348;2023-03-24T00:36:23;99111.03;;;7.27;100.00
19526;BME280;9907;42.676;26.348;2023-03-24T00:38:50;99111.59;;;7.20;100.00
19526;BME280;9907;42.676;26.348;2023-03-24T00:41:16;99117.97;;;7.17;100.00
19526;BME280;9907;42.676;26.348;2023-03-24T00:43:42;99112.59;;;7.30;100.00
19526;BME280;9907;42.676;26.348;2023-03-24T00:46:10;99110.44;;;7.35;100.00
19526;BME280;9907;42.676;26.348;2023-03-24T00:48:36;99115.09;;;7.20;100.00
19526;BME280;9907;42.676;26.348;2023-03-24T00:51:04;99113.06;;;7.24;100.00
19526;BME280;9907;42.676;26.348;2023-03-24T00:53:30;99104.75;;;7.40;100.00
19526;BME280;9907;42.676;26.348;2023-03-24T00:55:56;99108.66;;;7.47;100.00
19526;BME280;9907;42.676;26.348;2023-03-24T00:58:23;99110.13;;;7.51;100.00
19526;BME280;9907;42.676;26.348;2023-03-24T01:00:51;99099.66;;;7.60;100.00
19526;BME280;9907;42.676;26.348;2023-03-24T01:03:17;99106.75;;;7.49;100.00
19526;BME280;9907;42.676;26.348;2023-03-24T01:05:46;99101.50;;;7.36;100.00
19526;BME280;9907;42.676;26.348;2023-03-24T01:08:16;99111.63;;;7.31;100.00
19526;BME280;9907;42.676;26.348;2023-03-24T01:10:47;99103.56;;;7.44;100.00
19526;BME280;9907;42.676;26.348;2023-03-24T01:13:21;99098.50;;;7.41;100.00
19526;BME280;9907;42.676;26.348;2023-03-24T01:15:47;99097.50;;;7.30;100.00
19526;BME280;9907;42.676;26.348;2023-03-24T01:18:14;99095.75;;;7.18;100.00
19526;BME280;9907;42.676;26.348;2023-03-24T01:20:41;99110.59;;;7.21;100.00
19526;BME280;9907;42.676;26.348;2023-03-24T01:23:11;99107.66;;;7.02;100.00
19526;BME280;9907;42.676;26.348;2023-03-24T01:25:37;99103.91;;;7.04;100.00
19526;BME280;9907;42.676;26.348;2023-03-24T01:28:04;99097.47;;;7.19;100.00
19526;BME280;9907;42.676;26.348;2023-03-24T01:30:30;99100.00;;;6.97;100.00
19526;BME280;9907;42.676;26.348;2023-03-24T01:32:56;99103.06;;;7.04;100.00
19526;BME280;9907;42.676;26.348;2023-03-24T01:35:23;99101.88;;;7.08;100.00
19526;BME280;9907;42.676;26.348;2023-03-24T01:37:50;99101.34;;;7.03;100.00
19526;BME280;9907;42.676;26.348;2023-03-24T01:40:22;99093.75;;;6.98;100.00
19526;BME280;9907;42.676;26.348;2023-03-24T01:42:48;99093.84;;;6.97;100.00
19526;BME280;9907;42.676;26.348;2023-03-24T01:48:27;99086.28;;;7.03;100.00
19526;BME280;9907;42.676;26.348;2023-03-24T01:51:02;99080.44;;;7.22;100.00
19526;BME280;9907;42.676;26.348;2023-03-24T01:53:31;99085.06;;;7.31;100.00
19526;BME280;9907;42.676;26.348;2023-03-24T01:55:59;99075.25;;;7.20;100.00
19526;BME280;9907;42.676;26.348;2023-03-24T01:58:27;99072.09;;;6.92;100.00
19526;BME280;9907;42.676;26.348;2023-03-24T02:00:53;99068.53;;;6.80;100.00
19526;BME280;9907;42.676;26.348;2023-03-24T02:03:21;99069.94;;;6.97;100.00
19526;BME280;9907;42.676;26.348;2023-03-24T02:05:49;99066.63;;;7.06;100.00
19526;BME280;9907;42.676;26.348;2023-03-24T02:08:27;99073.00;;;7.03;100.00
19526;BME280;9907;42.676;26.348;2023-03-24T02:10:55;99070.19;;;6.94;100.00
19526;BME280;9907;42.676;26.348;2023-03-24T02:13:22;99081.25;;;6.88;100.00
19526;BME280;9907;42.676;26.348;2023-03-24T02:16:09;99081.53;;;6.72;100.00
19526;BME280;9907;42.676;26.348;2023-03-24T02:27:15;99077.03;;;6.61;100.00
19526;BME280;9907;42.676;26.348;2023-03-24T02:43:21;99100.56;;;6.90;100.00
19526;BME280;9907;42.676;26.348;2023-03-24T02:46:23;99106.56;;;7.04;100.00
19526;BME280;9907;42.676;26.348;2023-03-24T02:56:59;99103.38;;;6.99;100.00
19526;BME280;9907;42.676;26.348;2023-03-24T02:59:38;99096.97;;;6.91;100.00
19526;BME280;9907;42.676;26.348;2023-03-24T03:02:38;99106.50;;;6.93;100.00
19526;BME280;9907;42.676;26.348;2023-03-24T03:05:12;99122.88;;;7.11;100.00
19526;BME280;9907;42.676;26.348;2023-03-24T03:07:40;99128.44;;;7.08;100.00
19526;BME280;9907;42.676;26.348;2023-03-24T03:10:14;99131.31;;;7.05;100.00
19526;BME280;9907;42.676;26.348;2023-03-24T03:12:43;99135.16;;;7.01;100.00
19526;BME280;9907;42.676;26.348;2023-03-24T03:15:13;99130.13;;;7.09;100.00
19526;BME280;9907;42.676;26.348;2023-03-24T03:17:45;99120.75;;;6.92;100.00
19526;BME280;9907;42.676;26.348;2023-03-24T03:20:19;99118.88;;;6.81;100.00
19526;BME280;9907;42.676;26.348;2023-03-24T03:22:53;99121.78;;;6.66;100.00
19526;BME280;9907;42.676;26.348;2023-03-24T03:25:24;99116.31;;;6.56;100.00
19526;BME280;9907;42.676;26.348;2023-03-24T03:27:54;99114.81;;;6.52;100.00
19526;BME280;9907;42.676;26.348;2023-03-24T03:30:28;99092.44;;;6.44;100.00
19526;BME280;9907;42.676;26.348;2023-03-24T03:33:02;99077.06;;;6.36;100.00
19526;BME280;9907;42.676;26.348;2023-03-24T03:35:34;99064.66;;;6.36;100.00
19526;BME280;9907;42.676;26.348;2023-03-24T03:38:24;99067.22;;;6.38;100.00
19526;BME280;9907;42.676;26.348;2023-03-24T03:40:55;99071.56;;;6.39;100.00
19526;BME280;9907;42.676;26.348;2023-03-24T03:43:24;99071.13;;;6.45;100.00
19526;BME280;9907;42.676;26.348;2023-03-24T03:45:51;99075.13;;;6.51;100.00
19526;BME280;9907;42.676;26.348;2023-03-24T03:48:17;99083.97;;;6.39;100.00
19526;BME280;9907;42.676;26.348;2023-03-24T03:50:43;99085.16;;;6.34;100.00
19526;BME280;9907;42.676;26.348;2023-03-24T03:53:10;99083.78;;;6.29;100.00
19526;BME280;9907;42.676;26.348;2023-03-24T03:55:37;99086.13;;;6.21;100.00
19526;BME280;9907;42.676;26.348;2023-03-24T03:58:03;99086.66;;;6.26;100.00
19526;BME280;9907;42.676;26.348;2023-03-24T04:00:29;99082.09;;;6.28;100.00
19526;BME280;9907;42.676;26.348;2023-03-24T04:05:34;99085.03;;;6.36;100.00
19526;BME280;9907;42.676;26.348;2023-03-24T04:08:10;99085.66;;;6.40;100.00
19526;BME280;9907;42.676;26.348;2023-03-24T04:13:38;99086.19;;;6.32;100.00
19526;BME280;9907;42.676;26.348;2023-03-24T04:16:37;99087.59;;;6.38;100.00
19526;BME280;9907;42.676;26.348;2023-03-24T04:19:12;99087.34;;;6.53;100.00
19526;BME280;9907;42.676;26.348;2023-03-24T04:22:04;99094.38;;;6.65;100.00
19526;BME280;9907;42.676;26.348;2023-03-24T04:24:54;99089.00;;;6.54;100.00
19526;BME280;9907;42.676;26.348;2023-03-24T04:27:27;99090.94;;;6.52;100.00
19526;BME280;9907;42.676;26.348;2023-03-24T04:30:26;99108.34;;;6.56;100.00
19526;BME280;9907;42.676;26.348;2023-03-24T04:33:08;99099.38;;;6.70;100.00
19526;BME280;9907;42.676;26.348;2023-03-24T04:35:45;99103.16;;;6.78;100.00
19526;BME280;9907;42.676;26.348;2023-03-24T04:38:17;99100.38;;;6.80;100.00
19526;BME280;9907;42.676;26.348;2023-03-24T04:40:49;99110.81;;;6.83;100.00
19526;BME280;9907;42.676;26.348;2023-03-24T04:43:17;99109.09;;;6.82;100.00
19526;BME280;9907;42.676;26.348;2023-03-24T04:45:45;99103.78;;;6.82;100.00
19526;BME280;9907;42.676;26.348;2023-03-24T04:48:16;99108.47;;;6.78;100.00
19526;BME280;9907;42.676;26.348;2023-03-24T04:50:43;99105.75;;;6.67;100.00
19526;BME280;9907;42.676;26.348;2023-03-24T04:53:12;99102.66;;;6.73;100.00
19526;BME280;9907;42.676;26.348;2023-03-24T04:58:25;99108.19;;;7.18;100.00
19526;BME280;9907;42.676;26.348;2023-03-24T05:00:51;99116.09;;;7.30;100.00
19526;BME280;9907;42.676;26.348;2023-03-24T05:03:17;99112.63;;;7.41;100.00
19526;BME280;9907;42.676;26.348;2023-03-24T05:05:45;99114.78;;;7.71;100.00
19526;BME280;9907;42.676;26.348;2023-03-24T05:08:12;99114.88;;;7.69;100.00
19526;BME280;9907;42.676;26.348;2023-03-24T05:10:38;99120.81;;;7.84;100.00
19526;BME280;9907;42.676;26.348;2023-03-24T05:13:05;99118.56;;;8.02;100.00
19526;BME280;9907;42.676;26.348;2023-03-24T05:15:31;99115.56;;;8.28;100.00
19526;BME280;9907;42.676;26.348;2023-03-24T05:17:57;99122.25;;;8.45;100.00
19526;BME280;9907;42.676;26.348;2023-03-24T05:20:23;99125.34;;;8.72;100.00
19526;BME280;9907;42.676;26.348;2023-03-24T05:22:49;99127.50;;;8.90;100.00
19526;BME280;9907;42.676;26.348;2023-03-24T05:25:15;99131.00;;;9.01;97.66
19526;BME280;9907;42.676;26.348;2023-03-24T05:27:41;99137.03;;;9.03;96.85
19526;BME280;9907;42.676;26.348;2023-03-24T05:30:07;99140.81;;;9.33;94.77
19526;BME280;9907;42.676;26.348;2023-03-24T05:32:33;99139.66;;;9.46;92.12
19526;BME280;9907;42.676;26.348;2023-03-24T05:34:59;99126.91;;;9.50;91.82
19526;BME280;9907;42.676;26.348;2023-03-24T05:37:24;99132.59;;;9.77;90.53
19526;BME280;9907;42.676;26.348;2023-03-24T05:39:52;99134.72;;;9.83;89.22
19526;BME280;9907;42.676;26.348;2023-03-24T05:42:18;99131.22;;;10.03;87.81
19526;BME280;9907;42.676;26.348;2023-03-24T05:44:43;99129.78;;;10.20;86.52
19526;BME280;9907;42.676;26.348;2023-03-24T05:47:10;99127.94;;;10.41;85.69
19526;BME280;9907;42.676;26.348;2023-03-24T05:49:37;99122.69;;;10.60;84.12
19526;BME280;9907;42.676;26.348;2023-03-24T05:52:03;99128.72;;;10.72;83.82
19526;BME280;9907;42.676;26.348;2023-03-24T05:54:30;99131.28;;;10.73;82.53
19526;BME280;9907;42.676;26.348;2023-03-24T05:56:58;99131.75;;;10.88;82.51
19526;BME280;9907;42.676;26.348;2023-03-24T05:59:24;99129.41;;;11.04;82.33
19526;BME280;9907;42.676;26.348;2023-03-24T06:01:50;99135.34;;;11.37;80.10
19526;BME280;9907;42.676;26.348;2023-03-24T06:04:18;99129.41;;;11.33;78.76
19526;BME280;9907;42.676;26.348;2023-03-24T06:06:45;99134.78;;;11.52;78.79
19526;BME280;9907;42.676;26.348;2023-03-24T06:09:11;99139.59;;;11.78;78.04
19526;BME280;9907;42.676;26.348;2023-03-24T06:11:38;99136.72;;;11.98;76.93
19526;BME280;9907;42.676;26.348;2023-03-24T06:14:04;99143.19;;;12.05;75.54
19526;BME280;9907;42.676;26.348;2023-03-24T06:16:31;99135.47;;;12.39;74.94
19526;BME280;9907;42.676;26.348;2023-03-24T06:18:58;99151.06;;;12.63;72.74
19526;BME280;9907;42.676;26.348;2023-03-24T06:21:25;99150.38;;;12.88;73.01
19526;BME280;9907;42.676;26.348;2023-03-24T06:23:55;99154.38;;;13.02;71.55
19526;BME280;9907;42.676;26.348;2023-03-24T06:26:21;99148.72;;;13.32;71.22
19526;BME280;9907;42.676;26.348;2023-03-24T06:28:47;99148.72;;;13.32;68.64
19526;BME280;9907;42.676;26.348;2023-03-24T06:31:17;99153.84;;;13.43;68.17
19526;BME280;9907;42.676;26.348;2023-03-24T06:33:44;99149.16;;;13.45;68.69
19526;BME280;9907;42.676;26.348;2023-03-24T06:36:11;99149.13;;;13.55;68.28
19526;BME280;9907;42.676;26.348;2023-03-24T06:38:38;99148.84;;;13.84;68.58
19526;BME280;9907;42.676;26.348;2023-03-24T06:41:05;99140.97;;;13.64;68.03
19526;BME280;9907;42.676;26.348;2023-03-24T06:43:31;99139.44;;;13.80;69.11
19526;BME280;9907;42.676;26.348;2023-03-24T06:45:57;99144.88;;;13.70;69.52
19526;BME280;9907;42.676;26.348;2023-03-24T06:48:23;99143.09;;;13.79;70.09
19526;BME280;9907;42.676;26.348;2023-03-24T06:50:50;99142.06;;;14.15;69.21
19526;BME280;9907;42.676;26.348;2023-03-24T06:53:16;99141.56;;;14.37;69.84
19526;BME280;9907;42.676;26.348;2023-03-24T06:55:41;99132.84;;;14.43;68.53
19526;BME280;9907;42.676;26.348;2023-03-24T06:58:07;99140.78;;;14.27;69.90
19526;BME280;9907;42.676;26.348;2023-03-24T07:00:32;99140.88;;;14.35;70.05
19526;BME280;9907;42.676;26.348;2023-03-24T07:02:58;99134.00;;;14.67;67.81
19526;BME280;9907;42.676;26.348;2023-03-24T07:05:26;99138.19;;;14.69;66.53
19526;BME280;9907;42.676;26.348;2023-03-24T07:07:52;99129.56;;;14.57;67.21
19526;BME280;9907;42.676;26.348;2023-03-24T07:10:17;99133.78;;;14.60;67.22
19526;BME280;9907;42.676;26.348;2023-03-24T07:12:46;99145.50;;;14.85;66.25
19526;BME280;9907;42.676;26.348;2023-03-24T07:15:12;99139.84;;;14.96;64.41
19526;BME280;9907;42.676;26.348;2023-03-24T07:17:40;99133.66;;;15.20;64.89
19526;BME280;9907;42.676;26.348;2023-03-24T07:20:06;99137.56;;;15.25;64.19
19526;BME280;9907;42.676;26.348;2023-03-24T07:22:33;99143.97;;;15.32;64.48
19526;BME280;9907;42.676;26.348;2023-03-24T07:25:01;99145.88;;;15.56;64.39
19526;BME280;9907;42.676;26.348;2023-03-24T07:27:32;99137.66;;;15.66;63.63
19526;BME280;9907;42.676;26.348;2023-03-24T07:29:59;99142.22;;;15.81;63.27
19526;BME280;9907;42.676;26.348;2023-03-24T07:32:25;99138.34;;;15.92;61.87
19526;BME280;9907;42.676;26.348;2023-03-24T07:34:53;99142.16;;;15.49;62.28
19526;BME280;9907;42.676;26.348;2023-03-24T07:37:18;99142.59;;;15.28;62.78
19526;BME280;9907;42.676;26.348;2023-03-24T07:39:44;99131.91;;;15.52;63.25
19526;BME280;9907;42.676;26.348;2023-03-24T07:42:10;99138.16;;;15.69;62.30
19526;BME280;9907;42.676;26.348;2023-03-24T07:44:35;99133.28;;;15.81;63.44
19526;BME280;9907;42.676;26.348;2023-03-24T07:47:01;99140.16;;;15.67;62.63
19526;BME280;9907;42.676;26.348;2023-03-24T07:49:26;99133.41;;;15.47;62.95
19526;BME280;9907;42.676;26.348;2023-03-24T07:51:52;99138.84;;;15.79;62.31
19526;BME280;9907;42.676;26.348;2023-03-24T07:54:17;99132.06;;;16.24;60.47
19526;BME280;9907;42.676;26.348;2023-03-24T07:56:43;99131.25;;;16.07;61.81
19526;BME280;9907;42.676;26.348;2023-03-24T07:59:08;99134.91;;;16.22;62.07
19526;BME280;9907;42.676;26.348;2023-03-24T08:01:35;99127.88;;;16.13;61.30
19526;BME280;9907;42.676;26.348;2023-03-24T08:04:02;99130.22;;;16.32;60.98
19526;BME280;9907;42.676;26.348;2023-03-24T08:06:29;99131.19;;;16.39;60.78
19526;BME280;9907;42.676;26.348;2023-03-24T08:08:54;99133.53;;;16.50;60.36
19526;BME280;9907;42.676;26.348;2023-03-24T08:11:20;99132.84;;;16.65;59.33
19526;BME280;9907;42.676;26.348;2023-03-24T08:13:46;99122.06;;;16.57;60.86
19526;BME280;9907;42.676;26.348;2023-03-24T08:16:11;99126.81;;;16.46;61.49
19526;BME280;9907;42.676;26.348;2023-03-24T08:18:37;99131.69;;;16.59;60.97
19526;BME280;9907;42.676;26.348;2023-03-24T08:21:03;99118.38;;;16.41;62.70
19526;BME280;9907;42.676;26.348;2023-03-24T08:23:29;99129.88;;;16.35;62.24
19526;BME280;9907;42.676;26.348;2023-03-24T08:25:54;99112.78;;;16.67;60.76
19526;BME280;9907;42.676;26.348;2023-03-24T08:28:20;99111.53;;;16.78;59.88
19526;BME280;9907;42.676;26.348;2023-03-24T08:30:46;99112.63;;;16.44;60.64
19526;BME280;9907;42.676;26.348;2023-03-24T08:33:13;99103.19;;;16.65;58.96
19526;BME280;9907;42.676;26.348;2023-03-24T08:35:39;99104.63;;;16.83;58.37
19526;BME280;9907;42.676;26.348;2023-03-24T08:38:06;99101.81;;;17.30;57.98
19526;BME280;9907;42.676;26.348;2023-03-24T08:40:36;99100.59;;;17.64;57.22
19526;BME280;9907;42.676;26.348;2023-03-24T08:43:05;99096.13;;;17.48;56.09
19526;BME280;9907;42.676;26.348;2023-03-24T08:45:40;99098.28;;;17.61;55.91
19526;BME280;9907;42.676;26.348;2023-03-24T08:48:07;99100.50;;;17.80;55.78
19526;BME280;9907;42.676;26.348;2023-03-24T08:50:35;99095.50;;;17.91;55.13
19526;BME280;9907;42.676;26.348;2023-03-24T08:53:01;99103.91;;;17.51;55.72
19526;BME280;9907;42.676;26.348;2023-03-24T08:55:27;99103.91;;;18.11;54.02
19526;BME280;9907;42.676;26.348;2023-03-24T08:57:52;99102.25;;;17.73;55.61
19526;BME280;9907;42.676;26.348;2023-03-24T09:00:19;99108.19;;;17.37;58.13
19526;BME280;9907;42.676;26.348;2023-03-24T09:02:47;99104.47;;;16.85;57.21
19526;BME280;9907;42.676;26.348;2023-03-24T09:05:14;99097.38;;;16.84;57.93
19526;BME280;9907;42.676;26.348;2023-03-24T09:07:40;99105.66;;;17.13;57.72
19526;BME280;9907;42.676;26.348;2023-03-24T09:10:08;99103.69;;;17.30;57.00
19526;BME280;9907;42.676;26.348;2023-03-24T09:12:35;99105.03;;;17.03;57.87
19526;BME280;9907;42.676;26.348;2023-03-24T09:15:00;99091.81;;;17.39;56.98
19526;BME280;9907;42.676;26.348;2023-03-24T09:17:26;99087.13;;;17.56;58.46
19526;BME280;9907;42.676;26.348;2023-03-24T09:19:52;99080.69;;;17.65;57.46
19526;BME280;9907;42.676;26.348;2023-03-24T09:22:17;99084.66;;;17.77;56.86
19526;BME280;9907;42.676;26.348;2023-03-24T09:24:43;99079.03;;;17.78;55.44
19526;BME280;9907;42.676;26.348;2023-03-24T09:27:09;99072.72;;;17.86;54.69
19526;BME280;9907;42.676;26.348;2023-03-24T09:29:35;99073.59;;;17.64;55.93
19526;BME280;9907;42.676;26.348;2023-03-24T09:32:00;99071.91;;;17.63;58.73
19526;BME280;9907;42.676;26.348;2023-03-24T09:34:26;99075.34;;;17.57;55.95
19526;BME280;9907;42.676;26.348;2023-03-24T09:36:51;99064.19;;;17.97;55.40
19526;BME280;9907;42.676;26.348;2023-03-24T09:39:17;99061.78;;;18.17;55.06
19526;BME280;9907;42.676;26.348;2023-03-24T09:41:44;99067.00;;;17.43;56.62
19526;BME280;9907;42.676;26.348;2023-03-24T09:47:20;99071.72;;;17.41;56.19
19526;BME280;9907;42.676;26.348;2023-03-24T09:49:48;99060.22;;;17.25;57.00
19526;BME280;9907;42.676;26.348;2023-03-24T09:52:20;99068.19;;;17.64;56.66
19526;BME280;9907;42.676;26.348;2023-03-24T09:54:53;99063.56;;;17.49;54.74
19526;BME280;9907;42.676;26.348;2023-03-24T09:59:47;99055.22;;;17.59;56.33
19526;BME280;9907;42.676;26.348;2023-03-24T10:02:15;99057.63;;;17.54;58.21
19526;BME280;9907;42.676;26.348;2023-03-24T10:04:42;99055.72;;;17.40;57.94
19526;BME280;9907;42.676;26.348;2023-03-24T10:09:55;99055.88;;;17.16;58.49
19526;BME280;9907;42.676;26.348;2023-03-24T10:12:27;99060.13;;;17.10;59.17
19526;BME280;9907;42.676;26.348;2023-03-24T10:17:58;99049.09;;;17.42;56.36
19526;BME280;9907;42.676;26.348;2023-03-24T10:21:13;99044.22;;;17.38;56.88
19526;BME280;9907;42.676;26.348;2023-03-24T10:26:27;99036.84;;;17.55;55.70
19526;BME280;9907;42.676;26.348;2023-03-24T10:31:52;99034.31;;;17.08;57.38
19526;BME280;9907;42.676;26.348;2023-03-24T10:34:18;99036.97;;;17.16;56.86
19526;BME280;9907;42.676;26.348;2023-03-24T10:36:46;99030.41;;;17.18;55.97
19526;BME280;9907;42.676;26.348;2023-03-24T10:39:15;99030.97;;;17.06;56.37
19526;BME280;9907;42.676;26.348;2023-03-24T10:41:45;99021.31;;;17.11;56.25
19526;BME280;9907;42.676;26.348;2023-03-24T10:44:12;99027.28;;;17.29;56.97
19526;BME280;9907;42.676;26.348;2023-03-24T10:46:45;99026.66;;;17.19;57.62
19526;BME280;9907;42.676;26.348;2023-03-24T10:51:44;99016.59;;;16.82;55.80
19526;BME280;9907;42.676;26.348;2023-03-24T10:54:22;99007.16;;;16.86;56.97
19526;BME280;9907;42.676;26.348;2023-03-24T11:02:18;98995.69;;;17.30;55.65
19526;BME280;9907;42.676;26.348;2023-03-24T11:04:53;98982.13;;;17.38;56.41
19526;BME280;9907;42.676;26.348;2023-03-24T11:07:21;98992.19;;;17.29;56.51
19526;BME280;9907;42.676;26.348;2023-03-24T11:10:17;98982.03;;;17.09;56.04
19526;BME280;9907;42.676;26.348;2023-03-24T11:15:30;98983.53;;;17.11;55.54
19526;BME280;9907;42.676;26.348;2023-03-24T11:18:07;98964.34;;;17.06;56.18
19526;BME280;9907;42.676;26.348;2023-03-24T11:20:46;98976.56;;;16.94;55.68
19526;BME280;9907;42.676;26.348;2023-03-24T11:23:18;98969.44;;;17.01;55.23
19526;BME280;9907;42.676;26.348;2023-03-24T11:25:52;98970.34;;;16.93;56.22
19526;BME280;9907;42.676;26.348;2023-03-24T11:28:26;98964.66;;;16.88;55.79
19526;BME280;9907;42.676;26.348;2023-03-24T11:30:53;98953.91;;;16.80;55.68
19526;BME280;9907;42.676;26.348;2023-03-24T11:33:29;98959.00;;;16.75;55.70
19526;BME280;9907;42.676;26.348;2023-03-24T11:35:58;98959.78;;;16.84;57.63
19526;BME280;9907;42.676;26.348;2023-03-24T11:38:30;98954.63;;;16.97;56.88
19526;BME280;9907;42.676;26.348;2023-03-24T11:40:58;98941.50;;;16.94;56.08
19526;BME280;9907;42.676;26.348;2023-03-24T11:43:26;98945.22;;;16.93;55.11
19526;BME280;9907;42.676;26.348;2023-03-24T11:46:10;98946.78;;;16.87;54.38
19526;BME280;9907;42.676;26.348;2023-03-24T11:51:34;98946.31;;;17.07;53.67
19526;BME280;9907;42.676;26.348;2023-03-24T11:54:04;98936.34;;;17.07;53.79
19526;BME280;9907;42.676;26.348;2023-03-24T11:56:37;98939.34;;;16.89;54.16
19526;BME280;9907;42.676;26.348;2023-03-24T12:11:04;98926.16;;;17.17;53.65
19526;BME280;9907;42.676;26.348;2023-03-24T12:18:34;98912.72;;;17.09;53.46
19526;BME280;9907;42.676;26.348;2023-03-24T12:23:58;98903.25;;;17.13;52.85
19526;BME280;9907;42.676;26.348;2023-03-24T12:26:30;98894.13;;;17.14;51.95
19526;BME280;9907;42.676;26.348;2023-03-24T12:40:06;98887.91;;;16.91;52.52
19526;BME280;9907;42.676;26.348;2023-03-24T12:42:45;98879.88;;;16.83;50.34
19526;BME280;9907;42.676;26.348;2023-03-24T12:56:32;98849.56;;;16.81;50.74
19526;BME280;9907;42.676;26.348;2023-03-24T12:59:28;98847.50;;;16.83;50.39
19526;BME280;9907;42.676;26.348;2023-03-24T13:02:35;98843.59;;;16.85;49.75
19526;BME280;9907;42.676;26.348;2023-03-24T13:05:31;98842.69;;;16.93;50.64
19526;BME280;9907;42.676;26.348;2023-03-24T13:07:59;98847.06;;;16.94;49.23
19526;BME280;9907;42.676;26.348;2023-03-24T13:10:33;98846.78;;;16.89;49.90
19526;BME280;9907;42.676;26.348;2023-03-24T13:15:51;98843.69;;;16.77;49.47
19526;BME280;9907;42.676;26.348;2023-03-24T13:18:31;98845.00;;;16.81;48.91
19526;BME280;9907;42.676;26.348;2023-03-24T13:29:11;98833.47;;;16.87;50.94
19526;BME280;9907;42.676;26.348;2023-03-24T13:31:43;98833.38;;;16.81;50.58
19526;BME280;9907;42.676;26.348;2023-03-24T13:34:29;98824.44;;;16.80;50.89
19526;BME280;9907;42.676;26.348;2023-03-24T13:37:04;98830.47;;;16.82;51.15
19526;BME280;9907;42.676;26.348;2023-03-24T13:39:33;98825.88;;;16.91;50.80
19526;BME280;9907;42.676;26.348;2023-03-24T13:42:00;98826.22;;;16.88;51.46
19526;BME280;9907;42.676;26.348;2023-03-24T13:44:39;98818.41;;;16.93;51.73
19526;BME280;9907;42.676;26.348;2023-03-24T13:47:11;98819.47;;;16.92;51.20
19526;BME280;9907;42.676;26.348;2023-03-24T13:49:38;98814.53;;;16.95;50.71
19526;BME280;9907;42.676;26.348;2023-03-24T13:52:17;98813.22;;;16.91;51.31
19526;BME280;9907;42.676;26.348;2023-03-24T13:54:46;98815.25;;;16.89;51.70
19526;BME280;9907;42.676;26.348;2023-03-24T13:57:19;98810.69;;;16.90;50.80
19526;BME280;9907;42.676;26.348;2023-03-24T14:02:50;98806.31;;;16.89;50.90
19526;BME280;9907;42.676;26.348;2023-03-24T14:08:17;98806.13;;;16.90;51.05
19526;BME280;9907;42.676;26.348;2023-03-24T14:10:47;98799.53;;;16.93;50.19
19526;BME280;9907;42.676;26.348;2023-03-24T14:21:01;98796.09;;;16.84;50.66
19526;BME280;9907;42.676;26.348;2023-03-24T14:28:52;98799.81;;;16.83;49.44
19526;BME280;9907;42.676;26.348;2023-03-24T14:31:28;98787.53;;;16.81;49.25
19526;BME280;9907;42.676;26.348;2023-03-24T14:36:38;98788.72;;;16.78;49.45
19526;BME280;9907;42.676;26.348;2023-03-24T14:39:32;98788.59;;;16.72;49.53
19526;BME280;9907;42.676;26.348;2023-03-24T14:42:06;98782.19;;;16.73;49.15
19526;BME280;9907;42.676;26.348;2023-03-24T14:47:19;98785.91;;;16.72;50.51
19526;BME280;9907;42.676;26.348;2023-03-24T14:49:51;98789.63;;;16.71;50.65
19526;BME280;9907;42.676;26.348;2023-03-24T14:52:48;98786.75;;;16.72;49.68
19526;BME280;9907;42.676;26.348;2023-03-24T14:55:14;98783.03;;;16.73;50.07
19526;BME280;9907;42.676;26.348;2023-03-24T14:57:53;98774.94;;;16.73;49.87
19526;BME280;9907;42.676;26.348;2023-03-24T15:03:17;98777.81;;;16.72;50.29
19526;BME280;9907;42.676;26.348;2023-03-24T15:05:48;98785.44;;;16.68;50.61
19526;BME280;9907;42.676;26.348;2023-03-24T15:08:16;98779.41;;;16.66;50.82
19526;BME280;9907;42.676;26.348;2023-03-24T15:18:42;98761.06;;;16.62;50.17
19526;BME280;9907;42.676;26.348;2023-03-24T15:21:14;98768.47;;;16.60;50.57
19526;BME280;9907;42.676;26.348;2023-03-24T15:23:45;98770.16;;;16.61;50.85
19526;BME280;9907;42.676;26.348;2023-03-24T15:26:12;98770.38;;;16.59;51.38
19526;BME280;9907;42.676;26.348;2023-03-24T15:28:38;98757.38;;;16.54;51.35
19526;BME280;9907;42.676;26.348;2023-03-24T15:31:03;98762.31;;;16.51;51.57
19526;BME280;9907;42.676;26.348;2023-03-24T15:33:38;98762.84;;;16.46;51.68
19526;BME280;9907;42.676;26.348;2023-03-24T15:36:13;98764.38;;;16.41;50.49
19526;BME280;9907;42.676;26.348;2023-03-24T15:38:44;98768.28;;;16.38;51.17
19526;BME280;9907;42.676;26.348;2023-03-24T15:41:12;98773.22;;;16.35;51.13
19526;BME280;9907;42.676;26.348;2023-03-24T15:43:47;98771.34;;;16.35;51.00
19526;BME280;9907;42.676;26.348;2023-03-24T15:46:32;98766.97;;;16.34;51.35
19526;BME280;9907;42.676;26.348;2023-03-24T15:48:58;98766.69;;;16.29;51.22
19526;BME280;9907;42.676;26.348;2023-03-24T15:51:50;98767.59;;;16.22;50.83
19526;BME280;9907;42.676;26.348;2023-03-24T15:54:22;98768.97;;;16.18;51.30
19526;BME280;9907;42.676;26.348;2023-03-24T15:57:18;98772.69;;;16.17;51.89